Weather History for Madison, SD

Change the Weather History Date:

Sunday, June 30, 2013

  Actual Average Record
Temperature  
Mean Temperature 65 °F -  
Max Temperature 75 °F 80 °F 93 °F (2011)
Min Temperature 55 °F 58 °F 55 °F (2010)
Growing Degree Days 15 (Base 50)    
Moisture  
Dew Point 52 °F    
Average Humidity 68    
Maximum Humidity 100    
Minimum Humidity 38    
Precipitation  
Precipitation 0.00 in - - ()
Sea Level Pressure  
Sea Level Pressure 30.14 in    
Wind  
Wind Speed 6 mph (NE)    
Max Wind Speed 13 mph    
Max Gust Speed 17 mph    
Visibility 10 miles    
Events      
Averages and records for this station are not official NWS values.
T = Trace of Precipitation, MM = Missing Value Source: NWS Daily Summary

Daily Weather History Graph

Daily Weather History Graph

Search for Another Location

Airport:

Trip Planner

Search our weather history database for the weather conditions in past years. The results will help you decide how hot, cold, wet, or windy it might be!

Date:

Astronomy

Jun. 30, 2013 Rise Set
Actual Time 5:48 AM CDT 9:15 PM CDT
Civil Twilight 5:12 AM CDT 9:51 PM CDT
Nautical Twilight 4:25 AM CDT 10:38 PM CDT
Astronomical Twilight 3:25 AM CDT 11:38 PM CDT
Moon 12:58 AM CDT (6/30) 2:22 PM CDT (6/30)
Length of Visible Light 16h 38m
Length of Day
15h 26m
Last Quarter, 45% of the Moon is Illuminated
Jun 30
Last Quarter
Jul 8
New
Jul 15
First Quarter
Jul 22
Full
Jul 29
Last Quarter

Hourly Weather History & Observations

Time (CDT) Temp. Dew Point Humidity Pressure Visibility Wind Dir Wind Speed Gust Speed Precip Events Conditions
12:10 AM 59.0 °F 57.2 °F 94% 30.05 in 10.0 mi NNE 4.6 mph - N/A   Partly Cloudy
12:30 AM 59.0 °F 57.2 °F 94% 30.06 in 10.0 mi NNE 4.6 mph - N/A   Clear
12:50 AM 60.8 °F 57.2 °F 88% 30.06 in 10.0 mi NE 3.5 mph - N/A   Partly Cloudy
1:10 AM 59.0 °F 57.2 °F 94% 30.07 in 10.0 mi North 5.8 mph - N/A   Clear
1:30 AM 57.2 °F 57.2 °F 100% 30.08 in 10.0 mi NNW 4.6 mph - N/A   Clear
1:50 AM 57.2 °F 57.2 °F 100% 30.08 in 10.0 mi North 4.6 mph - N/A   Partly Cloudy
2:10 AM 57.2 °F 57.2 °F 100% 30.08 in 10.0 mi North 4.6 mph - N/A   Clear
2:30 AM 57.2 °F 57.2 °F 100% 30.08 in 10.0 mi NE 3.5 mph - N/A   Clear
2:50 AM 57.2 °F 57.2 °F 100% 30.08 in 10.0 mi Calm Calm - N/A   Clear
3:10 AM 57.2 °F 57.2 °F 100% 30.08 in 10.0 mi ENE 3.5 mph - N/A   Clear
3:30 AM 55.4 °F 55.4 °F 100% 30.09 in 10.0 mi NE 4.6 mph - N/A   Clear
3:50 AM 55.4 °F 55.4 °F 100% 30.09 in 10.0 mi NNE 4.6 mph - N/A   Clear
4:10 AM 57.2 °F 57.2 °F 100% 30.09 in 10.0 mi NE 3.5 mph - N/A   Clear
4:30 AM 55.4 °F 55.4 °F 100% 30.10 in 10.0 mi NNE 3.5 mph - N/A   Clear
4:50 AM 55.4 °F 55.4 °F 100% 30.09 in 10.0 mi ENE 3.5 mph - N/A   Clear
5:10 AM 55.4 °F 55.4 °F 100% 30.10 in 10.0 mi NNE 3.5 mph - N/A   Clear
5:30 AM 55.4 °F 55.4 °F 100% 30.10 in 10.0 mi NNE 4.6 mph - N/A   Clear
5:50 AM 55.4 °F 55.4 °F 100% 30.11 in 10.0 mi NE 3.5 mph - N/A   Clear
6:10 AM 55.4 °F 55.4 °F 100% 30.11 in 10.0 mi NE 4.6 mph - N/A   Clear
6:30 AM 55.4 °F 55.4 °F 100% 30.12 in 10.0 mi NE 5.8 mph - N/A   Clear
6:50 AM 57.2 °F 57.2 °F 100% 30.12 in 10.0 mi NE 5.8 mph - N/A   Clear
7:10 AM 59.0 °F 57.2 °F 94% 30.13 in 10.0 mi NE 5.8 mph - N/A   Clear
7:30 AM 60.8 °F 59.0 °F 94% 30.14 in 10.0 mi ENE 5.8 mph - N/A   Clear
7:50 AM 62.6 °F 57.2 °F 82% 30.14 in 10.0 mi ENE 8.1 mph - N/A   Clear
8:10 AM 64.4 °F 57.2 °F 77% 30.15 in 10.0 mi ENE 5.8 mph - N/A   Clear
8:30 AM 64.4 °F 57.2 °F 77% 30.15 in 10.0 mi ENE 6.9 mph - N/A   Clear
8:50 AM 66.2 °F 55.4 °F 68% 30.15 in 10.0 mi ENE 6.9 mph - N/A   Clear
9:10 AM 66.2 °F 55.4 °F 68% 30.15 in 10.0 mi East 5.8 mph - N/A   Clear
9:30 AM 68.0 °F 51.8 °F 56% 30.15 in 10.0 mi East 8.1 mph - N/A   Clear
9:50 AM 68.0 °F 50.0 °F 52% 30.15 in 10.0 mi ENE 5.8 mph - N/A   Clear
10:10 AM 68.0 °F 50.0 °F 52% 30.16 in 10.0 mi NE 9.2 mph - N/A   Clear
10:30 AM 68.0 °F 48.2 °F 49% 30.16 in 10.0 mi East 8.1 mph - N/A   Clear
10:50 AM 71.6 °F 48.2 °F 43% 30.16 in 10.0 mi NE 6.9 mph - N/A   Clear
11:10 AM 69.8 °F 46.4 °F 43% 30.16 in 10.0 mi ENE 9.2 mph - N/A   Clear
11:30 AM 71.6 °F 48.2 °F 43% 30.16 in 10.0 mi East 12.7 mph 16.1 mph N/A   Clear
11:50 AM 71.6 °F 46.4 °F 41% 30.16 in 10.0 mi NE 11.5 mph 16.1 mph N/A   Clear
12:10 PM 71.6 °F 46.4 °F 41% 30.16 in 10.0 mi ENE 10.4 mph - N/A   Clear
12:30 PM 71.6 °F 48.2 °F 43% 30.16 in 10.0 mi East 8.1 mph - N/A   Clear
12:50 PM 73.4 °F 48.2 °F 41% 30.16 in 10.0 mi ENE 9.2 mph - N/A   Clear
1:10 PM 73.4 °F 48.2 °F 41% 30.16 in 10.0 mi ENE 6.9 mph - N/A   Clear
1:30 PM 73.4 °F 48.2 °F 41% 30.16 in 10.0 mi NE 8.1 mph - N/A   Clear
1:50 PM 73.4 °F 48.2 °F 41% 30.16 in 10.0 mi East 10.4 mph - N/A   Clear
2:10 PM 73.4 °F 48.2 °F 41% 30.16 in 10.0 mi NE 10.4 mph - N/A   Clear
2:30 PM 75.2 °F 48.2 °F 38% 30.16 in 10.0 mi NE 9.2 mph - N/A   Clear
2:50 PM 73.4 °F 48.2 °F 41% 30.16 in 10.0 mi NE 11.5 mph - N/A   Clear
3:10 PM 73.4 °F 48.2 °F 41% 30.15 in 10.0 mi NE 8.1 mph 16.1 mph N/A   Clear
3:30 PM 73.4 °F 48.2 °F 41% 30.15 in 10.0 mi NE 10.4 mph - N/A   Clear
3:50 PM 75.2 °F 48.2 °F 38% 30.15 in 10.0 mi NE 9.2 mph - N/A   Clear
4:10 PM 75.2 °F 48.2 °F 38% 30.15 in 10.0 mi NE 11.5 mph 17.3 mph N/A   Clear
4:30 PM 75.2 °F 48.2 °F 38% 30.15 in 10.0 mi East 9.2 mph - N/A   Clear
4:50 PM 75.2 °F 48.2 °F 38% 30.15 in 10.0 mi ENE 9.2 mph - N/A   Clear
5:10 PM 75.2 °F 48.2 °F 38% 30.15 in 10.0 mi NE 9.2 mph - N/A   Clear
5:30 PM 73.4 °F 48.2 °F 41% 30.15 in 10.0 mi NE 6.9 mph - N/A   Clear
5:50 PM 73.4 °F 48.2 °F 41% 30.15 in 10.0 mi ENE 6.9 mph - N/A   Clear
6:10 PM 73.4 °F 48.2 °F 41% 30.15 in 10.0 mi NE 8.1 mph - N/A   Clear
6:30 PM 73.4 °F 50.0 °F 44% 30.15 in 10.0 mi NE 9.2 mph - N/A   Clear
6:50 PM 73.4 °F 50.0 °F 44% 30.16 in 10.0 mi ENE 10.4 mph - N/A   Clear
7:10 PM 71.6 °F 50.0 °F 46% 30.16 in 10.0 mi NE 8.1 mph - N/A   Clear
7:30 PM 71.6 °F 50.0 °F 46% 30.16 in 10.0 mi NE 8.1 mph - N/A   Partly Cloudy
7:50 PM 71.6 °F 51.8 °F 50% 30.16 in 10.0 mi NE 5.8 mph - N/A   Clear
8:10 PM 68.0 °F 50.0 °F 52% 30.16 in 10.0 mi NE 6.9 mph - N/A   Clear
8:30 PM 68.0 °F 50.0 °F 52% 30.16 in 10.0 mi NE 6.9 mph - N/A   Clear
8:50 PM 66.2 °F 50.0 °F 56% 30.16 in 10.0 mi NNE 5.8 mph - N/A   Clear
9:10 PM 62.6 °F 53.6 °F 72% 30.17 in 10.0 mi North 4.6 mph - N/A   Clear
9:30 PM 62.6 °F 53.6 °F 72% 30.17 in 10.0 mi North 5.8 mph - N/A   Clear
9:50 PM 62.6 °F 53.6 °F 72% 30.18 in 10.0 mi NNW 4.6 mph - N/A   Clear
10:10 PM 60.8 °F 51.8 °F 72% 30.19 in 10.0 mi NW 4.6 mph - N/A   Clear
10:30 PM 59.0 °F 53.6 °F 82% 30.19 in 10.0 mi NNW 5.8 mph - N/A   Clear
10:50 PM 59.0 °F 53.6 °F 82% 30.20 in 10.0 mi NNW 3.5 mph - N/A   Clear
11:10 PM 59.0 °F 53.6 °F 82% 30.20 in 10.0 mi North 5.8 mph - N/A   Clear
11:30 PM 57.2 °F 53.6 °F 88% 30.20 in 10.0 mi NNW 4.6 mph - N/A   Clear
11:50 PM 57.2 °F 55.4 °F 94% 30.20 in 10.0 mi North 4.6 mph - N/A   Clear